sensor_id;sensor_type;location;lat;lon;timestamp;pressure;altitude;pressure_sealevel;temperature;humidity
39891;BME280;25564;53.312;9.790;2023-04-28T00:01:33;101139.94;;;4.93;82.70
39891;BME280;25564;53.312;9.790;2023-04-28T00:04:05;101108.19;;;4.78;82.95
39891;BME280;25564;53.312;9.790;2023-04-28T00:06:36;101125.78;;;4.82;82.54
39891;BME280;25564;53.312;9.790;2023-04-28T00:09:08;101131.88;;;4.78;82.20
39891;BME280;25564;53.312;9.790;2023-04-28T00:11:43;101102.78;;;4.64;82.98
39891;BME280;25564;53.312;9.790;2023-04-28T00:14:15;101100.94;;;4.58;83.29
39891;BME280;25564;53.312;9.790;2023-04-28T00:16:48;101110.63;;;4.63;82.98
39891;BME280;25564;53.312;9.790;2023-04-28T00:19:19;101127.41;;;4.72;82.11
39891;BME280;25564;53.312;9.790;2023-04-28T00:21:51;101127.41;;;4.72;82.94
39891;BME280;25564;53.312;9.790;2023-04-28T00:24:23;101112.47;;;4.70;83.04
39891;BME280;25564;53.312;9.790;2023-04-28T00:26:54;101106.25;;;4.63;82.03
39891;BME280;25564;53.312;9.790;2023-04-28T00:29:27;101105.41;;;4.66;83.06
39891;BME280;25564;53.312;9.790;2023-04-28T00:31:58;101113.31;;;4.66;83.36
39891;BME280;25564;53.312;9.790;2023-04-28T00:34:33;101079.84;;;4.52;83.56
39891;BME280;25564;53.312;9.790;2023-04-28T00:37:07;101102.81;;;4.67;82.59
39891;BME280;25564;53.312;9.790;2023-04-28T00:39:38;101081.66;;;4.58;83.37
39891;BME280;25564;53.312;9.790;2023-04-28T00:42:14;101094.03;;;4.67;83.26
39891;BME280;25564;53.312;9.790;2023-04-28T00:44:46;101088.78;;;4.67;84.08
39891;BME280;25564;53.312;9.790;2023-04-28T00:47:17;101069.41;;;4.57;83.40
39891;BME280;25564;53.312;9.790;2023-04-28T00:49:49;101089.66;;;4.66;83.58
39891;BME280;25564;53.312;9.790;2023-04-28T00:52:20;101048.22;;;4.46;83.54
39891;BME280;25564;53.312;9.790;2023-04-28T00:54:52;101054.38;;;4.48;83.87
39891;BME280;25564;53.312;9.790;2023-04-28T00:57:23;101086.13;;;4.64;83.56
39891;BME280;25564;53.312;9.790;2023-04-28T00:59:54;101081.72;;;4.61;83.21
39891;BME280;25564;53.312;9.790;2023-04-28T01:02:26;101076.31;;;4.50;83.36
39891;BME280;25564;53.312;9.790;2023-04-28T01:05:00;101064.03;;;4.49;83.22
39891;BME280;25564;53.312;9.790;2023-04-28T01:07:31;101079.88;;;4.55;82.93
39891;BME280;25564;53.312;9.790;2023-04-28T01:10:05;101004.06;;;4.13;83.32
39891;BME280;25564;53.312;9.790;2023-04-28T01:12:37;101064.94;;;4.51;82.63
39891;BME280;25564;53.312;9.790;2023-04-28T01:15:15;101067.50;;;4.47;83.15
39891;BME280;25564;53.312;9.790;2023-04-28T01:17:47;101074.47;;;4.43;83.55
39891;BME280;25564;53.312;9.790;2023-04-28T01:20:18;100973.91;;;3.84;82.92
39891;BME280;25564;53.312;9.790;2023-04-28T01:22:50;101063.84;;;4.34;83.87
39891;BME280;25564;53.312;9.790;2023-04-28T01:25:21;101069.97;;;4.33;83.57
39891;BME280;25564;53.312;9.790;2023-04-28T01:27:52;101056.78;;;4.32;84.34
39891;BME280;25564;53.312;9.790;2023-04-28T01:30:24;101056.75;;;4.28;83.96
39891;BME280;25564;53.312;9.790;2023-04-28T01:32:55;101051.44;;;4.24;84.01
39891;BME280;25564;53.312;9.790;2023-04-28T01:35:27;101055.84;;;4.25;83.60
39891;BME280;25564;53.312;9.790;2023-04-28T01:37:58;101055.78;;;4.22;84.12
39891;BME280;25564;53.312;9.790;2023-04-28T01:40:30;101034.56;;;4.04;84.28
39891;BME280;25564;53.312;9.790;2023-04-28T01:43:01;101023.94;;;3.94;83.39
39891;BME280;25564;53.312;9.790;2023-04-28T01:45:33;101048.59;;;4.06;83.63
39891;BME280;25564;53.312;9.790;2023-04-28T01:48:04;101050.28;;;4.01;83.58
39891;BME280;25564;53.312;9.790;2023-04-28T01:50:36;101035.25;;;3.90;84.20
39891;BME280;25564;53.312;9.790;2023-04-28T01:53:07;101045.84;;;3.98;83.82
39891;BME280;25564;53.312;9.790;2023-04-28T01:55:38;101040.56;;;3.95;83.98
39891;BME280;25564;53.312;9.790;2023-04-28T01:58:10;101037.06;;;3.94;84.62
39891;BME280;25564;53.312;9.790;2023-04-28T02:00:41;101022.94;;;3.86;83.91
39891;BME280;25564;53.312;9.790;2023-04-28T02:03:12;101037.06;;;3.94;84.10
39891;BME280;25564;53.312;9.790;2023-04-28T02:05:44;101020.34;;;3.88;84.21
39891;BME280;25564;53.312;9.790;2023-04-28T02:08:15;101036.16;;;3.92;84.21
39891;BME280;25564;53.312;9.790;2023-04-28T02:10:47;101033.53;;;3.92;83.85
39891;BME280;25564;53.312;9.790;2023-04-28T02:13:18;101025.63;;;3.91;84.13
39891;BME280;25564;53.312;9.790;2023-04-28T02:15:49;101023.81;;;3.87;84.22
39891;BME280;25564;53.312;9.790;2023-04-28T02:18:21;101023.78;;;3.84;83.65
39891;BME280;25564;53.312;9.790;2023-04-28T02:20:52;101010.47;;;3.72;84.70
39891;BME280;25564;53.312;9.790;2023-04-28T02:23:23;101017.53;;;3.77;84.36
39891;BME280;25564;53.312;9.790;2023-04-28T02:26:01;101018.44;;;3.79;85.11
39891;BME280;25564;53.312;9.790;2023-04-28T02:28:33;101013.19;;;3.78;84.62
39891;BME280;25564;53.312;9.790;2023-04-28T02:31:06;101014.88;;;3.74;84.28
39891;BME280;25564;53.312;9.790;2023-04-28T02:33:38;101001.63;;;3.65;84.50
39891;BME280;25564;53.312;9.790;2023-04-28T02:36:09;100996.31;;;3.62;84.19
39891;BME280;25564;53.312;9.790;2023-04-28T02:38:41;101001.56;;;3.62;85.00
39891;BME280;25564;53.312;9.790;2023-04-28T02:41:13;100994.50;;;3.56;83.90
39891;BME280;25564;53.312;9.790;2023-04-28T02:43:45;100959.97;;;3.31;84.50
39891;BME280;25564;53.312;9.790;2023-04-28T02:46:16;100991.75;;;3.49;84.45
39891;BME280;25564;53.312;9.790;2023-04-28T02:48:48;100992.59;;;3.48;84.60
39891;BME280;25564;53.312;9.790;2023-04-28T02:51:19;100983.81;;;3.46;84.78
39891;BME280;25564;53.312;9.790;2023-04-28T02:53:50;100982.91;;;3.44;84.79
39891;BME280;25564;53.312;9.790;2023-04-28T02:56:22;100975.88;;;3.41;84.52
39891;BME280;25564;53.312;9.790;2023-04-28T02:58:53;100967.97;;;3.38;85.09
39891;BME280;25564;53.312;9.790;2023-04-28T03:01:24;100967.88;;;3.32;84.84
39891;BME280;25564;53.312;9.790;2023-04-28T03:03:56;100967.00;;;3.32;85.27
39891;BME280;25564;53.312;9.790;2023-04-28T03:06:28;100968.72;;;3.29;84.45
39891;BME280;25564;53.312;9.790;2023-04-28T03:08:59;100966.94;;;3.28;85.24
39891;BME280;25564;53.312;9.790;2023-04-28T03:11:30;100948.47;;;3.21;84.43
39891;BME280;25564;53.312;9.790;2023-04-28T03:14:01;100958.97;;;3.22;85.56
39891;BME280;25564;53.312;9.790;2023-04-28T03:16:33;100951.97;;;3.21;85.43
39891;BME280;25564;53.312;9.790;2023-04-28T03:19:04;100952.81;;;3.20;85.80
39891;BME280;25564;53.312;9.790;2023-04-28T03:21:36;100916.66;;;2.98;85.62
39891;BME280;25564;53.312;9.790;2023-04-28T03:24:07;100954.53;;;3.18;85.23
39891;BME280;25564;53.312;9.790;2023-04-28T03:26:38;100947.56;;;3.19;85.16
39891;BME280;25564;53.312;9.790;2023-04-28T03:29:09;100947.59;;;3.20;84.95
39891;BME280;25564;53.312;9.790;2023-04-28T03:31:41;100940.66;;;3.25;84.94
39891;BME280;25564;53.312;9.790;2023-04-28T03:34:13;100919.63;;;3.21;85.69
39891;BME280;25564;53.312;9.790;2023-04-28T03:36:44;100923.25;;;3.31;85.04
39891;BME280;25564;53.312;9.790;2023-04-28T03:39:16;100924.13;;;3.29;85.33
39891;BME280;25564;53.312;9.790;2023-04-28T03:41:47;100911.81;;;3.25;85.97
39891;BME280;25564;53.312;9.790;2023-04-28T03:44:18;100894.34;;;3.26;85.39
39891;BME280;25564;53.312;9.790;2023-04-28T03:46:50;100902.22;;;3.27;85.61
39891;BME280;25564;53.312;9.790;2023-04-28T03:49:21;100854.78;;;3.09;86.21
39891;BME280;25564;53.312;9.790;2023-04-28T03:51:52;100912.13;;;3.47;85.46
39891;BME280;25564;53.312;9.790;2023-04-28T03:54:24;100906.06;;;3.49;85.09
39891;BME280;25564;53.312;9.790;2023-04-28T03:56:55;100899.09;;;3.51;84.93
39891;BME280;25564;53.312;9.790;2023-04-28T03:59:26;100899.09;;;3.53;86.19
39891;BME280;25564;53.312;9.790;2023-04-28T04:01:58;100885.88;;;3.44;85.09
39891;BME280;25564;53.312;9.790;2023-04-28T04:04:29;100901.72;;;3.53;86.02
39891;BME280;25564;53.312;9.790;2023-04-28T04:07:01;100892.00;;;3.46;85.67
39891;BME280;25564;53.312;9.790;2023-04-28T04:09:33;100900.00;;;3.53;85.17
39891;BME280;25564;53.312;9.790;2023-04-28T04:12:04;100875.38;;;3.44;85.71
39891;BME280;25564;53.312;9.790;2023-04-28T04:14:36;100863.94;;;3.40;85.84
39891;BME280;25564;53.312;9.790;2023-04-28T04:17:08;100888.69;;;3.59;86.12
39891;BME280;25564;53.312;9.790;2023-04-28T04:19:39;100879.88;;;3.54;85.79
39891;BME280;25564;53.312;9.790;2023-04-28T04:22:11;100885.28;;;3.66;85.72
39891;BME280;25564;53.312;9.790;2023-04-28T04:24:42;100883.59;;;3.70;85.15
39891;BME280;25564;53.312;9.790;2023-04-28T04:27:14;100871.38;;;3.73;85.82
39891;BME280;25564;53.312;9.790;2023-04-28T04:29:45;100871.44;;;3.78;85.35
39891;BME280;25564;53.312;9.790;2023-04-28T04:32:17;100867.06;;;3.78;84.95
39891;BME280;25564;53.312;9.790;2023-04-28T04:34:49;100864.50;;;3.83;85.90
39891;BME280;25564;53.312;9.790;2023-04-28T04:37:20;100854.91;;;3.85;85.36
39891;BME280;25564;53.312;9.790;2023-04-28T04:39:52;100861.16;;;3.94;85.19
39891;BME280;25564;53.312;9.790;2023-04-28T04:42:24;100824.25;;;3.82;84.97
39891;BME280;25564;53.312;9.790;2023-04-28T04:44:59;100795.16;;;3.64;85.67
39891;BME280;25564;53.312;9.790;2023-04-28T04:47:42;100860.47;;;4.11;84.48
39891;BME280;25564;53.312;9.790;2023-04-28T04:50:22;100842.06;;;4.11;84.88
39891;BME280;25564;53.312;9.790;2023-04-28T04:52:54;100864.03;;;4.20;84.90
39891;BME280;25564;53.312;9.790;2023-04-28T04:55:29;100828.06;;;4.09;85.44
39891;BME280;25564;53.312;9.790;2023-04-28T04:58:01;100854.53;;;4.33;85.35
39891;BME280;25564;53.312;9.790;2023-04-28T05:00:32;100851.94;;;4.38;85.31
39891;BME280;25564;53.312;9.790;2023-04-28T05:03:04;100847.66;;;4.47;84.53
39891;BME280;25564;53.312;9.790;2023-04-28T05:05:36;100847.69;;;4.50;85.07
39891;BME280;25564;53.312;9.790;2023-04-28T05:08:08;100854.81;;;4.64;85.24
39891;BME280;25564;53.312;9.790;2023-04-28T05:10:39;100847.88;;;4.72;85.08
39891;BME280;25564;53.312;9.790;2023-04-28T05:13:11;100849.72;;;4.82;84.30
39891;BME280;25564;53.312;9.790;2023-04-28T05:15:42;100813.75;;;4.75;84.67
39891;BME280;25564;53.312;9.790;2023-04-28T05:18:14;100834.97;;;5.02;83.76
39891;BME280;25564;53.312;9.790;2023-04-28T05:20:46;100833.28;;;5.10;84.25
39891;BME280;25564;53.312;9.790;2023-04-28T05:23:17;100845.59;;;5.20;83.52
39891;BME280;25564;53.312;9.790;2023-04-28T05:25:48;100831.59;;;5.29;83.86
39891;BME280;25564;53.312;9.790;2023-04-28T05:28:20;100802.63;;;5.21;83.24
39891;BME280;25564;53.312;9.790;2023-04-28T05:30:52;100829.06;;;5.46;83.83
39891;BME280;25564;53.312;9.790;2023-04-28T05:33:23;100820.34;;;5.57;83.00
39891;BME280;25564;53.312;9.790;2023-04-28T05:35:55;100817.75;;;5.64;83.02
39891;BME280;25564;53.312;9.790;2023-04-28T05:38:26;100816.94;;;5.81;83.05
39891;BME280;25564;53.312;9.790;2023-04-28T05:40:58;100787.06;;;5.76;83.05
39891;BME280;25564;53.312;9.790;2023-04-28T05:43:29;100822.31;;;6.15;82.14
39891;BME280;25564;53.312;9.790;2023-04-28T05:46:00;100797.75;;;6.23;82.25
39891;BME280;25564;53.312;9.790;2023-04-28T05:48:32;100797.75;;;6.43;81.44
39891;BME280;25564;53.312;9.790;2023-04-28T05:51:03;100815.31;;;6.69;81.24
39891;BME280;25564;53.312;9.790;2023-04-28T05:53:34;100764.34;;;6.67;81.12
39891;BME280;25564;53.312;9.790;2023-04-28T05:56:06;100814.41;;;7.17;80.49
39891;BME280;25564;53.312;9.790;2023-04-28T05:58:37;100817.78;;;7.49;80.06
39891;BME280;25564;53.312;9.790;2023-04-28T06:01:09;100808.41;;;8.52;79.45
39891;BME280;25564;53.312;9.790;2023-04-28T06:03:41;100815.44;;;9.47;77.52
39891;BME280;25564;53.312;9.790;2023-04-28T06:06:13;100806.53;;;10.22;75.21
39891;BME280;25564;53.312;9.790;2023-04-28T06:08:45;100814.13;;;10.97;73.41
39891;BME280;25564;53.312;9.790;2023-04-28T06:11:17;100803.94;;;11.65;72.20
39891;BME280;25564;53.312;9.790;2023-04-28T06:13:52;100811.09;;;12.06;70.94
39891;BME280;25564;53.312;9.790;2023-04-28T06:16:23;100805.56;;;12.15;70.48
39891;BME280;25564;53.312;9.790;2023-04-28T06:18:55;100793.34;;;12.06;70.32
39891;BME280;25564;53.312;9.790;2023-04-28T06:21:26;100797.41;;;11.83;70.63
39891;BME280;25564;53.312;9.790;2023-04-28T06:23:58;100799.69;;;11.56;71.05
39891;BME280;25564;53.312;9.790;2023-04-28T06:26:30;100764.91;;;11.25;71.63
39891;BME280;25564;53.312;9.790;2023-04-28T06:29:02;100793.97;;;11.34;71.90
39891;BME280;25564;53.312;9.790;2023-04-28T06:31:33;100801.41;;;11.16;71.92
39891;BME280;25564;53.312;9.790;2023-04-28T06:34:05;100794.56;;;11.02;72.11
39891;BME280;25564;53.312;9.790;2023-04-28T06:36:36;100787.38;;;11.09;71.95
39891;BME280;25564;53.312;9.790;2023-04-28T06:39:08;100782.06;;;11.09;71.81
39891;BME280;25564;53.312;9.790;2023-04-28T06:41:39;100775.91;;;11.05;71.61
39891;BME280;25564;53.312;9.790;2023-04-28T06:44:11;100773.44;;;10.96;71.51
39891;BME280;25564;53.312;9.790;2023-04-28T06:46:45;100773.38;;;10.99;70.85
39891;BME280;25564;53.312;9.790;2023-04-28T06:49:16;100778.56;;;11.05;71.02
39891;BME280;25564;53.312;9.790;2023-04-28T06:51:48;100784.75;;;11.07;70.72
39891;BME280;25564;53.312;9.790;2023-04-28T06:54:19;100789.19;;;11.05;70.47
39891;BME280;25564;53.312;9.790;2023-04-28T06:56:50;100751.44;;;10.90;69.85
39891;BME280;25564;53.312;9.790;2023-04-28T06:59:22;100765.28;;;11.07;69.46
39891;BME280;25564;53.312;9.790;2023-04-28T07:01:53;100770.22;;;11.27;69.30
39891;BME280;25564;53.312;9.790;2023-04-28T07:04:25;100768.50;;;11.23;68.75
39891;BME280;25564;53.312;9.790;2023-04-28T07:06:57;100760.63;;;11.18;69.07
39891;BME280;25564;53.312;9.790;2023-04-28T07:09:28;100768.56;;;11.20;68.95
39891;BME280;25564;53.312;9.790;2023-04-28T07:12:02;100767.53;;;11.27;68.79
39891;BME280;25564;53.312;9.790;2023-04-28T07:14:34;100754.19;;;11.30;68.31
39891;BME280;25564;53.312;9.790;2023-04-28T07:17:05;100755.78;;;11.40;68.33
39891;BME280;25564;53.312;9.790;2023-04-28T07:19:37;100757.25;;;11.53;67.50
39891;BME280;25564;53.312;9.790;2023-04-28T07:22:08;100747.34;;;11.60;67.25
39891;BME280;25564;53.312;9.790;2023-04-28T07:24:39;100748.03;;;11.69;67.21
39891;BME280;25564;53.312;9.790;2023-04-28T07:27:11;100747.69;;;11.86;66.95
39891;BME280;25564;53.312;9.790;2023-04-28T07:29:43;100753.69;;;11.96;66.78
39891;BME280;25564;53.312;9.790;2023-04-28T07:32:14;100748.78;;;12.16;66.72
39891;BME280;25564;53.312;9.790;2023-04-28T07:34:46;100750.72;;;12.47;66.12
39891;BME280;25564;53.312;9.790;2023-04-28T07:37:17;100741.09;;;12.75;65.54
39891;BME280;25564;53.312;9.790;2023-04-28T07:39:49;100748.34;;;13.02;65.03
39891;BME280;25564;53.312;9.790;2023-04-28T07:42:20;100751.66;;;13.10;64.58
39891;BME280;25564;53.312;9.790;2023-04-28T07:44:52;100747.88;;;13.21;64.09
39891;BME280;25564;53.312;9.790;2023-04-28T07:47:23;100741.97;;;13.40;63.96
39891;BME280;25564;53.312;9.790;2023-04-28T07:49:55;100732.63;;;13.55;63.48
39891;BME280;25564;53.312;9.790;2023-04-28T07:52:26;100740.63;;;13.85;63.36
39891;BME280;25564;53.312;9.790;2023-04-28T07:54:58;100733.75;;;14.05;62.63
39891;BME280;25564;53.312;9.790;2023-04-28T07:57:29;100736.63;;;14.27;62.28
39891;BME280;25564;53.312;9.790;2023-04-28T08:00:01;100719.28;;;14.40;61.73
39891;BME280;25564;53.312;9.790;2023-04-28T08:02:33;100738.22;;;14.59;61.12
39891;BME280;25564;53.312;9.790;2023-04-28T08:05:05;100724.25;;;14.78;60.88
39891;BME280;25564;53.312;9.790;2023-04-28T08:07:38;100728.72;;;15.02;60.11
39891;BME280;25564;53.312;9.790;2023-04-28T08:10:10;100698.28;;;15.06;60.10
39891;BME280;25564;53.312;9.790;2023-04-28T08:12:41;100719.34;;;15.15;59.44
39891;BME280;25564;53.312;9.790;2023-04-28T08:15:15;100722.91;;;15.16;59.21
39891;BME280;25564;53.312;9.790;2023-04-28T08:17:48;100719.25;;;15.18;58.88
39891;BME280;25564;53.312;9.790;2023-04-28T08:20:20;100707.22;;;15.30;58.88
39891;BME280;25564;53.312;9.790;2023-04-28T08:22:55;100706.41;;;15.28;58.46
39891;BME280;25564;53.312;9.790;2023-04-28T08:25:27;100712.47;;;15.33;58.28
39891;BME280;25564;53.312;9.790;2023-04-28T08:27:58;100710.59;;;15.35;58.10
39891;BME280;25564;53.312;9.790;2023-04-28T08:30:31;100705.78;;;15.45;57.61
39891;BME280;25564;53.312;9.790;2023-04-28T08:33:02;100705.13;;;15.61;57.21
39891;BME280;25564;53.312;9.790;2023-04-28T08:35:34;100711.16;;;15.90;56.76
39891;BME280;25564;53.312;9.790;2023-04-28T08:38:06;100710.09;;;15.94;55.96
39891;BME280;25564;53.312;9.790;2023-04-28T08:40:39;100695.66;;;15.98;55.65
39891;BME280;25564;53.312;9.790;2023-04-28T08:43:11;100702.28;;;16.11;55.16
39891;BME280;25564;53.312;9.790;2023-04-28T08:45:43;100703.41;;;16.27;54.80
39891;BME280;25564;53.312;9.790;2023-04-28T08:48:19;100687.50;;;16.23;54.07
39891;BME280;25564;53.312;9.790;2023-04-28T08:50:52;100695.69;;;16.20;54.13
39891;BME280;25564;53.312;9.790;2023-04-28T08:53:25;100696.66;;;16.17;53.71
39891;BME280;25564;53.312;9.790;2023-04-28T08:55:57;100690.44;;;16.17;53.95
39891;BME280;25564;53.312;9.790;2023-04-28T08:58:28;100697.16;;;16.27;53.48
39891;BME280;25564;53.312;9.790;2023-04-28T09:01:00;100708.13;;;16.43;53.12
39891;BME280;25564;53.312;9.790;2023-04-28T09:03:34;100707.63;;;16.75;53.10
39891;BME280;25564;53.312;9.790;2023-04-28T09:06:06;100706.69;;;16.96;52.94
39891;BME280;25564;53.312;9.790;2023-04-28T09:08:38;100695.44;;;17.09;52.45
39891;BME280;25564;53.312;9.790;2023-04-28T09:11:10;100688.56;;;17.22;52.22
39891;BME280;25564;53.312;9.790;2023-04-28T09:13:43;100692.56;;;17.32;51.97
39891;BME280;25564;53.312;9.790;2023-04-28T09:16:15;100695.25;;;17.32;51.17
39891;BME280;25564;53.312;9.790;2023-04-28T09:18:56;100680.88;;;17.14;50.62
39891;BME280;25564;53.312;9.790;2023-04-28T09:21:28;100681.28;;;17.05;51.31
39891;BME280;25564;53.312;9.790;2023-04-28T09:23:59;100677.72;;;17.05;51.21
39891;BME280;25564;53.312;9.790;2023-04-28T09:26:47;100676.56;;;17.30;49.92
39891;BME280;25564;53.312;9.790;2023-04-28T09:29:19;100676.06;;;17.41;50.83
39891;BME280;25564;53.312;9.790;2023-04-28T09:31:50;100664.53;;;17.39;50.58
39891;BME280;25564;53.312;9.790;2023-04-28T09:34:22;100661.34;;;17.50;50.97
39891;BME280;25564;53.312;9.790;2023-04-28T09:36:53;100658.97;;;17.62;50.27
39891;BME280;25564;53.312;9.790;2023-04-28T09:39:29;100660.13;;;17.57;50.07
39891;BME280;25564;53.312;9.790;2023-04-28T09:42:01;100661.63;;;17.62;50.48
39891;BME280;25564;53.312;9.790;2023-04-28T09:44:33;100648.59;;;17.55;49.76
39891;BME280;25564;53.312;9.790;2023-04-28T09:47:19;100648.81;;;17.50;48.75
39891;BME280;25564;53.312;9.790;2023-04-28T09:50:00;100644.94;;;17.37;49.12
39891;BME280;25564;53.312;9.790;2023-04-28T09:52:32;100643.94;;;17.40;49.91
39891;BME280;25564;53.312;9.790;2023-04-28T09:55:05;100628.50;;;17.45;49.61
39891;BME280;25564;53.312;9.790;2023-04-28T09:57:38;100631.81;;;17.69;49.40
39891;BME280;25564;53.312;9.790;2023-04-28T10:00:11;100626.31;;;17.72;48.99
39891;BME280;25564;53.312;9.790;2023-04-28T10:02:42;100636.09;;;17.73;48.95
39891;BME280;25564;53.312;9.790;2023-04-28T10:05:15;100624.91;;;17.82;48.51
39891;BME280;25564;53.312;9.790;2023-04-28T10:07:47;100633.00;;;17.99;48.67
39891;BME280;25564;53.312;9.790;2023-04-28T10:10:18;100627.34;;;18.05;48.31
39891;BME280;25564;53.312;9.790;2023-04-28T10:12:50;100626.97;;;18.13;48.27
39891;BME280;25564;53.312;9.790;2023-04-28T10:15:22;100630.50;;;18.13;48.08
39891;BME280;25564;53.312;9.790;2023-04-28T10:17:54;100621.19;;;18.20;47.95
39891;BME280;25564;53.312;9.790;2023-04-28T10:20:28;100629.75;;;18.28;47.87
39891;BME280;25564;53.312;9.790;2023-04-28T10:23:43;100617.34;;;18.26;46.82
39891;BME280;25564;53.312;9.790;2023-04-28T10:26:18;100631.56;;;18.28;48.50
39891;BME280;25564;53.312;9.790;2023-04-28T10:28:50;100628.47;;;18.36;48.10
39891;BME280;25564;53.312;9.790;2023-04-28T10:31:22;100612.50;;;18.15;48.19
39891;BME280;25564;53.312;9.790;2023-04-28T10:33:55;100619.78;;;18.13;48.11
39891;BME280;25564;53.312;9.790;2023-04-28T10:36:45;100610.34;;;18.05;46.83
39891;BME280;25564;53.312;9.790;2023-04-28T10:39:17;100616.19;;;17.95;47.83
39891;BME280;25564;53.312;9.790;2023-04-28T10:41:48;100609.94;;;17.95;48.23
39891;BME280;25564;53.312;9.790;2023-04-28T10:47:04;100604.03;;;18.06;47.39
39891;BME280;25564;53.312;9.790;2023-04-28T10:55:33;100592.13;;;18.28;46.81
39891;BME280;25564;53.312;9.790;2023-04-28T11:00:48;100594.34;;;18.55;47.63
39891;BME280;25564;53.312;9.790;2023-04-28T11:06:28;100585.88;;;18.95;45.99
39891;BME280;25564;53.312;9.790;2023-04-28T11:14:29;100583.44;;;19.24;46.44
39891;BME280;25564;53.312;9.790;2023-04-28T11:17:08;100579.44;;;19.31;45.04
39891;BME280;25564;53.312;9.790;2023-04-28T11:19:43;100569.72;;;19.28;46.51
39891;BME280;25564;53.312;9.790;2023-04-28T11:22:21;100573.09;;;19.16;46.04
39891;BME280;25564;53.312;9.790;2023-04-28T11:24:59;100561.38;;;19.33;45.80
39891;BME280;25564;53.312;9.790;2023-04-28T11:27:31;100569.06;;;19.72;45.49
39891;BME280;25564;53.312;9.790;2023-04-28T11:30:18;100558.41;;;19.85;44.13
39891;BME280;25564;53.312;9.790;2023-04-28T11:32:50;100558.50;;;19.83;45.28
39891;BME280;25564;53.312;9.790;2023-04-28T11:35:21;100556.81;;;19.67;44.84
39891;BME280;25564;53.312;9.790;2023-04-28T11:38:02;100543.00;;;19.41;44.83
39891;BME280;25564;53.312;9.790;2023-04-28T11:40:36;100533.25;;;19.39;45.32
39891;BME280;25564;53.312;9.790;2023-04-28T11:43:08;100550.03;;;19.59;44.97
39891;BME280;25564;53.312;9.790;2023-04-28T11:45:45;100545.44;;;19.62;44.39
39891;BME280;25564;53.312;9.790;2023-04-28T11:48:20;100543.34;;;19.67;44.73
39891;BME280;25564;53.312;9.790;2023-04-28T11:50:53;100545.97;;;19.68;44.87
39891;BME280;25564;53.312;9.790;2023-04-28T11:53:43;100537.53;;;19.58;44.37
39891;BME280;25564;53.312;9.790;2023-04-28T11:56:15;100537.59;;;19.25;45.52
39891;BME280;25564;53.312;9.790;2023-04-28T11:58:58;100539.50;;;19.08;45.06
39891;BME280;25564;53.312;9.790;2023-04-28T12:01:58;100536.69;;;18.93;45.04
39891;BME280;25564;53.312;9.790;2023-04-28T12:04:41;100540.84;;;18.83;46.02
39891;BME280;25564;53.312;9.790;2023-04-28T12:07:17;100523.66;;;18.70;46.32
39891;BME280;25564;53.312;9.790;2023-04-28T12:10:15;100525.56;;;18.68;46.22
39891;BME280;25564;53.312;9.790;2023-04-28T12:13:15;100515.16;;;18.78;45.75
39891;BME280;25564;53.312;9.790;2023-04-28T12:16:11;100515.00;;;18.81;45.74
39891;BME280;25564;53.312;9.790;2023-04-28T12:19:11;100508.84;;;18.94;46.42
39891;BME280;25564;53.312;9.790;2023-04-28T12:21:43;100507.22;;;19.08;46.40
39891;BME280;25564;53.312;9.790;2023-04-28T12:24:19;100485.69;;;19.23;45.65
39891;BME280;25564;53.312;9.790;2023-04-28T12:40:02;100498.88;;;18.97;46.20
39891;BME280;25564;53.312;9.790;2023-04-28T12:42:35;100500.09;;;18.91;46.94
39891;BME280;25564;53.312;9.790;2023-04-28T12:45:58;100497.13;;;18.80;46.65
39891;BME280;25564;53.312;9.790;2023-04-28T12:48:41;100489.06;;;18.64;46.04
39891;BME280;25564;53.312;9.790;2023-04-28T12:51:13;100489.94;;;18.47;46.72
39891;BME280;25564;53.312;9.790;2023-04-28T12:53:44;100493.34;;;18.34;46.53
39891;BME280;25564;53.312;9.790;2023-04-28T12:59:57;100490.28;;;18.24;46.95
39891;BME280;25564;53.312;9.790;2023-04-28T13:02:29;100476.94;;;18.22;47.03
39891;BME280;25564;53.312;9.790;2023-04-28T13:08:43;100475.38;;;18.01;46.88
39891;BME280;25564;53.312;9.790;2023-04-28T13:11:18;100487.38;;;17.94;47.30
39891;BME280;25564;53.312;9.790;2023-04-28T13:13:53;100488.16;;;17.79;47.17
39891;BME280;25564;53.312;9.790;2023-04-28T13:16:27;100478.69;;;17.72;47.09
39891;BME280;25564;53.312;9.790;2023-04-28T13:19:31;100472.91;;;17.62;46.29
39891;BME280;25564;53.312;9.790;2023-04-28T13:22:09;100479.47;;;17.56;47.73
39891;BME280;25564;53.312;9.790;2023-04-28T13:24:41;100461.59;;;17.38;47.51
39891;BME280;25564;53.312;9.790;2023-04-28T13:27:13;100453.78;;;17.33;47.63
39891;BME280;25564;53.312;9.790;2023-04-28T13:29:53;100462.38;;;17.40;47.06
39891;BME280;25564;53.312;9.790;2023-04-28T13:32:29;100453.53;;;17.38;47.27
39891;BME280;25564;53.312;9.790;2023-04-28T13:35:03;100453.41;;;17.41;47.17
39891;BME280;25564;53.312;9.790;2023-04-28T13:37:35;100443.72;;;17.20;47.94
39891;BME280;25564;53.312;9.790;2023-04-28T13:40:19;100438.28;;;17.21;48.01
39891;BME280;25564;53.312;9.790;2023-04-28T13:45:41;100429.97;;;17.62;48.62
39891;BME280;25564;53.312;9.790;2023-04-28T13:48:12;100436.78;;;17.86;48.56
39891;BME280;25564;53.312;9.790;2023-04-28T13:51:12;100426.19;;;18.01;47.67
39891;BME280;25564;53.312;9.790;2023-04-28T13:53:43;100427.59;;;17.90;47.90
39891;BME280;25564;53.312;9.790;2023-04-28T13:56:51;100416.97;;;17.72;47.10
39891;BME280;25564;53.312;9.790;2023-04-28T13:59:22;100412.72;;;17.68;48.57
39891;BME280;25564;53.312;9.790;2023-04-28T14:01:54;100416.63;;;17.60;49.06
39891;BME280;25564;53.312;9.790;2023-04-28T14:05:06;100430.84;;;17.62;47.89
39891;BME280;25564;53.312;9.790;2023-04-28T14:08:01;100421.84;;;17.46;48.88
39891;BME280;25564;53.312;9.790;2023-04-28T14:10:45;100417.31;;;17.29;48.96
39891;BME280;25564;53.312;9.790;2023-04-28T14:17:04;100421.88;;;16.91;49.70